createdAt,value
2019-03-04T12:05:41.811Z,39.03
2019-03-04T12:06:27.395Z,39.60
2019-03-04T12:07:13.595Z,39.35
2019-03-04T12:09:46.437Z,40.78
2019-03-04T12:10:32.656Z,41.42
2019-03-04T12:11:20.651Z,40.45
2019-03-04T12:12:07.508Z,39.90
2019-03-04T12:12:54.489Z,38.83
2019-03-04T12:13:40.476Z,38.55
2019-03-04T12:14:27.463Z,38.50
2019-03-04T12:15:17.520Z,34.53
2019-03-04T12:16:06.421Z,36.23
2019-03-04T12:16:52.696Z,35.30
2019-03-04T13:46:56.594Z,32.95
2019-03-04T13:48:34.308Z,32.88
2019-03-04T13:49:21.240Z,31.75
2019-03-04T13:50:09.965Z,33.18
2019-03-04T13:51:45.068Z,34.60
2019-03-04T13:54:00.005Z,33.38
2019-03-04T13:54:48.032Z,34.50
2019-03-04T13:55:36.267Z,34.70
2019-03-04T13:56:25.607Z,35.85
2019-03-04T13:57:13.606Z,33.13
2019-03-04T13:58:02.468Z,32.48
2019-03-04T13:58:50.526Z,34.30
2019-03-04T13:59:35.310Z,34.03
2019-03-04T14:00:24.453Z,35.92
2019-03-04T14:01:09.590Z,35.43
2019-03-04T14:01:54.500Z,34.88
2019-03-04T14:02:39.986Z,35.48
2019-03-04T14:03:25.032Z,33.20
2019-03-04T14:04:10.093Z,34.25
2019-03-04T14:04:55.320Z,32.83
2019-03-04T14:05:45.006Z,35.68
2019-03-04T14:06:29.526Z,35.33
2019-03-04T14:07:14.133Z,33.90
2019-03-04T14:08:42.987Z,38.25
2019-03-04T14:09:28.309Z,36.60
2019-03-04T14:10:14.991Z,37.60
2019-03-04T14:10:59.978Z,36.60
2019-03-04T14:12:33.159Z,39.75
2019-03-04T14:13:17.998Z,40.03
2019-03-04T14:14:02.585Z,39.80
2019-03-04T14:14:47.989Z,41.02
2019-03-04T14:15:40.315Z,40.45
2019-03-04T14:16:29.552Z,40.15
2019-03-04T14:17:24.140Z,38.20
2019-03-04T14:18:54.584Z,37.75
2019-03-04T14:21:24.028Z,35.38
2019-03-04T14:22:19.966Z,35.63
2019-03-04T14:23:04.307Z,38.02
2019-03-04T14:23:49.315Z,38.50
2019-03-04T14:24:40.595Z,38.60
2019-03-04T14:25:25.329Z,37.63
2019-03-04T14:26:11.308Z,37.80
2019-03-04T14:26:56.313Z,40.75
2019-03-04T14:27:42.106Z,37.48
2019-03-04T14:28:28.365Z,39.10
2019-03-04T14:29:17.362Z,37.40
2019-03-04T14:30:01.988Z,37.38
2019-03-04T14:30:48.572Z,37.10
2019-03-04T14:31:36.095Z,38.83
2019-03-04T14:32:21.306Z,37.05
2019-03-04T14:33:06.093Z,36.55
2019-03-04T14:34:34.315Z,38.95
2019-03-04T14:35:20.315Z,38.53
2019-03-04T14:36:04.999Z,38.35
2019-03-04T14:36:53.087Z,38.53
2019-03-04T14:37:37.942Z,39.88
2019-03-04T14:38:22.980Z,37.88
2019-03-04T14:39:07.310Z,37.78
2019-03-04T14:39:54.313Z,38.67
2019-03-04T14:40:39.964Z,38.45
2019-03-04T14:41:24.535Z,36.90
2019-03-04T14:42:10.323Z,37.85
2019-03-04T14:42:55.432Z,38.28
2019-03-04T14:43:42.052Z,38.17
2019-03-04T14:44:30.134Z,38.28
2019-03-04T14:45:20.318Z,39.38
2019-03-04T14:46:14.658Z,39.25
2019-03-04T14:47:02.626Z,37.95
2019-03-04T14:49:15.307Z,39.10
2019-03-04T14:52:43.375Z,37.15
2019-03-04T14:54:23.394Z,37.98
2019-03-04T14:55:15.312Z,41.88
2019-03-04T14:56:01.403Z,42.88
2019-03-04T14:56:48.948Z,42.80
2019-03-04T14:57:45.709Z,42.75
2019-03-04T14:58:30.112Z,44.05
2019-03-04T15:00:00.991Z,42.38
2019-03-04T15:00:51.341Z,41.90
2019-03-04T15:01:35.951Z,44.03
2019-03-04T15:02:20.969Z,41.15
2019-03-04T15:03:05.383Z,42.75
2019-03-04T15:03:50.314Z,42.40
2019-03-04T15:04:35.525Z,46.00
2019-03-04T15:05:24.564Z,43.70
2019-03-04T15:06:09.314Z,43.65
2019-03-04T15:06:54.354Z,45.60
2019-03-04T15:07:38.996Z,45.33
2019-03-04T15:08:24.803Z,44.45
2019-03-04T15:09:11.977Z,47.00
2019-03-04T15:09:57.012Z,46.40
2019-03-04T15:10:44.131Z,46.13
2019-03-04T15:11:30.531Z,48.75
2019-03-04T15:12:18.308Z,48.08
2019-03-04T15:13:03.563Z,46.50
2019-03-04T15:13:48.198Z,49.03
2019-03-04T15:14:32.496Z,47.65
2019-03-04T15:15:21.306Z,47.03
2019-03-04T15:16:11.549Z,47.75
2019-03-04T15:17:03.363Z,47.15
2019-03-04T15:17:47.526Z,49.55
2019-03-04T15:18:35.181Z,50.08
2019-03-04T15:19:21.514Z,52.70
2019-03-04T15:20:09.851Z,51.63
2019-03-04T15:22:54.664Z,54.77
2019-03-04T15:23:41.508Z,54.67
2019-03-04T15:24:30.518Z,52.95
2019-03-04T15:26:08.516Z,58.30
2019-03-04T15:26:56.493Z,60.85
2019-03-04T15:27:44.462Z,59.67
2019-03-04T15:28:31.674Z,56.48
2019-03-04T15:29:18.523Z,61.20
2019-03-04T15:30:08.521Z,57.75
2019-03-04T15:30:58.544Z,62.90
2019-03-04T15:34:54.542Z,60.52
2019-03-04T15:35:50.111Z,62.13
2019-03-04T15:36:35.315Z,64.03
2019-03-04T15:37:22.409Z,66.20
2019-03-04T15:38:10.534Z,64.35
2019-03-04T15:38:54.985Z,61.83
2019-03-04T15:39:40.894Z,64.17
2019-03-04T15:40:26.878Z,62.48
